Time;durP1;ratioP1;P1;durP2;ratioP2;P2;SDS_P1;SDS_P2;PMS_P1;PMS_P2;Temp;Humidity;BMP_temperature;BMP_pressure;BME280_temperature;BME280_humidity;BME280_pressure;Samples;Min_cycle;Max_cycle;Signal;HPM_P1;HPM_P2
2022/06/08 00:00:25;;;;;;;13.70;12.35;;;;;;;12.92;100.00;100970.19;1055166;28;20891;-82
2022/06/08 00:00:58;;;;;;;15.18;13.57;;;;;;;12.88;100.00;100967.16;1048536;28;20358;-83
2022/06/08 00:01:30;;;;;;;14.38;13.07;;;;;;;12.88;100.00;100971.69;1055761;28;20035;-83
2022/06/08 00:02:03;;;;;;;14.48;12.25;;;;;;;12.84;100.00;100971.31;1055629;28;20285;-82
2022/06/08 00:02:34;;;;;;;17.63;13.45;;;;;;;12.76;100.00;100965.47;1052137;28;20409;-83
2022/06/08 00:03:23;;;;;;;14.82;12.57;;;;;;;12.62;100.00;100971.03;1055997;28;20305;-82
2022/06/08 00:03:58;;;;;;;15.52;13.77;;;;;;;12.61;100.00;100965.91;1056126;28;20300;-83
2022/06/08 00:04:29;;;;;;;18.33;13.82;;;;;;;12.60;100.00;100967.75;1049611;28;20679;-83
2022/06/08 00:05:02;;;;;;;15.18;12.75;;;;;;;12.59;100.00;100965.28;1051914;28;20294;-83
2022/06/08 00:05:33;;;;;;;16.38;14.68;;;;;;;12.57;100.00;100965.50;1047792;28;20309;-83
2022/06/08 00:06:06;;;;;;;16.38;14.70;;;;;;;12.67;100.00;100962.31;1046662;28;20295;-83
2022/06/08 00:06:38;;;;;;;20.17;14.80;;;;;;;12.71;100.00;100970.69;1043656;28;20287;-82
2022/06/08 00:07:09;;;;;;;17.95;15.80;;;;;;;12.76;100.00;100957.47;1046601;28;20290;-82
2022/06/08 00:07:41;;;;;;;16.65;13.93;;;;;;;12.77;100.00;100956.41;1048302;28;20282;-83
2022/06/08 00:08:13;;;;;;;15.85;13.90;;;;;;;12.75;100.00;100964.66;1052936;28;20328;-82
2022/06/08 00:08:45;;;;;;;14.27;12.85;;;;;;;12.83;100.00;100960.84;1055716;28;20308;-83
2022/06/08 00:09:17;;;;;;;15.60;14.07;;;;;;;12.85;100.00;100966.78;1058587;28;20289;-83
2022/06/08 00:09:48;;;;;;;16.25;14.68;;;;;;;12.94;100.00;100952.88;1053591;28;20771;-82
2022/06/08 00:10:20;;;;;;;17.25;15.52;;;;;;;12.99;100.00;100957.53;1051784;28;20286;-83
2022/06/08 00:10:52;;;;;;;18.30;15.02;;;;;;;13.02;100.00;100958.94;1047282;28;20330;-82
2022/06/08 00:11:24;;;;;;;18.20;16.15;;;;;;;12.89;100.00;100950.06;1048117;28;20291;-82
2022/06/08 00:11:56;;;;;;;15.98;14.55;;;;;;;12.88;100.00;100958.31;1047882;28;20306;-83
2022/06/08 00:12:28;;;;;;;19.00;14.32;;;;;;;12.96;100.00;100956.13;1043902;28;20749;-83
2022/06/08 00:13:00;;;;;;;18.20;16.27;;;;;;;13.02;100.00;100954.41;1047680;28;20310;-83
2022/06/08 00:13:32;;;;;;;17.05;15.13;;;;;;;13.04;100.00;100956.84;1045606;28;20780;-82
2022/06/08 00:14:07;;;;;;;17.65;15.95;;;;;;;12.96;100.00;100948.13;1047280;28;20380;-82
2022/06/08 00:14:39;;;;;;;19.08;15.40;;;;;;;12.99;100.00;100950.31;1047207;28;20843;-82
2022/06/08 00:15:11;;;;;;;17.23;15.43;;;;;;;13.02;100.00;100948.22;1046426;28;20294;-82
2022/06/08 00:15:44;;;;;;;14.73;13.32;;;;;;;13.00;100.00;100946.59;1048678;28;20298;-82
2022/06/08 00:16:16;;;;;;;14.77;13.27;;;;;;;13.03;100.00;100944.50;1046365;28;20784;-82
2022/06/08 00:16:48;;;;;;;17.02;15.43;;;;;;;12.99;100.00;100950.31;1051960;28;20305;-82
2022/06/08 00:17:19;;;;;;;14.85;13.35;;;;;;;12.93;100.00;100939.75;1051441;28;20320;-82
2022/06/08 00:17:51;;;;;;;18.50;14.60;;;;;;;12.94;100.00;100942.19;1051714;28;20782;-82
2022/06/08 00:18:22;;;;;;;15.85;14.27;;;;;;;12.90;100.00;100945.53;1049258;28;20301;-82
2022/06/08 00:18:54;;;;;;;16.10;14.57;;;;;;;12.85;100.00;100942.72;1050274;28;20409;-82
2022/06/08 00:19:26;;;;;;;14.65;13.20;;;;;;;12.86;100.00;100949.69;1051759;28;20305;-82
2022/06/08 00:19:58;;;;;;;16.35;14.75;;;;;;;12.85;100.00;100953.41;1045418;28;20336;-82
2022/06/08 00:20:29;;;;;;;15.88;14.20;;;;;;;12.91;100.00;100947.16;1043713;28;20800;-82
2022/06/08 00:21:01;;;;;;;16.38;14.77;;;;;;;12.93;100.00;100945.09;1043370;28;20300;-83
2022/06/08 00:21:33;;;;;;;16.67;14.73;;;;;;;13.01;100.00;100958.13;1043620;28;20312;-83
2022/06/08 00:22:05;;;;;;;16.85;15.05;;;;;;;12.97;100.00;100951.59;1050523;28;20294;-82
2022/06/08 00:22:37;;;;;;;17.98;15.57;;;;;;;12.98;100.00;100954.03;1055366;28;20308;-82
2022/06/08 00:23:08;;;;;;;16.83;15.27;;;;;;;12.99;100.00;100952.19;1043233;28;20299;-83
2022/06/08 00:23:41;;;;;;;15.98;14.40;;;;;;;12.93;100.00;100950.44;1047526;28;20305;-82
2022/06/08 00:24:13;;;;;;;17.73;15.88;;;;;;;12.87;100.00;100959.34;1047603;28;20298;-82
2022/06/08 00:24:45;;;;;;;17.20;15.52;;;;;;;12.91;100.00;100952.53;1047997;28;20372;-82
2022/06/08 00:25:17;;;;;;;15.65;14.25;;;;;;;12.91;100.00;100952.53;1047725;28;20287;-83
2022/06/08 00:25:48;;;;;;;19.05;15.15;;;;;;;12.97;100.00;100951.59;1042221;28;20303;-83
2022/06/08 00:26:20;;;;;;;20.00;15.65;;;;;;;12.92;100.00;100951.47;1045739;28;20305;-82
2022/06/08 00:26:51;;;;;;;17.65;14.05;;;;;;;12.87;100.00;100945.97;1045933;28;20295;-82
2022/06/08 00:27:23;;;;;;;14.70;13.35;;;;;;;12.87;100.00;100945.97;1047870;28;20679;-83
2022/06/08 00:27:55;;;;;;;14.88;13.23;;;;;;;12.86;100.00;100944.34;1048003;28;20298;-83
2022/06/08 00:28:27;;;;;;;15.55;13.95;;;;;;;12.81;100.00;100947.72;1048153;28;20294;-82
2022/06/08 00:28:59;;;;;;;16.77;14.73;;;;;;;12.75;100.00;100945.13;1052546;28;20293;-82
2022/06/08 00:29:32;;;;;;;16.38;13.77;;;;;;;12.77;100.00;100945.72;1051749;28;20305;-82
2022/06/08 00:30:06;;;;;;;15.55;14.15;;;;;;;12.78;100.00;100936.66;1045006;28;20489;-83
2022/06/08 00:30:37;;;;;;;16.73;14.32;;;;;;;12.76;100.00;100944.91;1045277;28;20295;-83
2022/06/08 00:31:10;;;;;;;15.90;14.35;;;;;;;12.75;100.00;100950.50;1048119;28;20298;-82
2022/06/08 00:31:45;;;;;;;17.80;13.65;;;;;;;12.73;100.00;100944.56;1043860;28;20394;-82
2022/06/08 00:32:19;;;;;;;16.25;14.75;;;;;;;12.74;100.00;100936.31;1048002;28;20298;-83
2022/06/08 00:32:51;;;;;;;16.92;15.20;;;;;;;12.69;100.00;100949.53;1042428;28;20307;-83
2022/06/08 00:33:22;;;;;;;17.00;14.63;;;;;;;12.38;100.00;100934.56;1045095;28;20299;-83
2022/06/08 00:33:54;;;;;;;16.85;14.02;;;;;;;12.29;100.00;100943.91;1044816;28;20302;-82
2022/06/08 00:34:25;;;;;;;16.15;14.23;;;;;;;12.26;100.00;100945.16;1049815;27;20347;-82
2022/06/08 00:34:57;;;;;;;16.50;14.68;;;;;;;12.31;100.00;100933.81;1052677;28;20301;-82
2022/06/08 00:35:29;;;;;;;18.80;14.80;;;;;;;12.21;100.00;100936.19;1043991;28;20813;-83
2022/06/08 00:36:00;;;;;;;17.92;15.30;;;;;;;12.16;100.00;100933.41;1044538;28;20294;-83
2022/06/08 00:36:32;;;;;;;16.45;14.52;;;;;;;12.16;100.00;100936.06;1045888;28;20303;-83
2022/06/08 00:37:04;;;;;;;17.17;15.13;;;;;;;12.17;100.00;100932.34;1042413;28;20304;-83
2022/06/08 00:37:35;;;;;;;16.45;14.80;;;;;;;12.07;100.00;100928.38;1044194;28;20398;-82
2022/06/08 00:38:07;;;;;;;17.20;15.00;;;;;;;11.99;100.00;100933.16;1043424;28;20680;-82
2022/06/08 00:38:39;;;;;;;18.60;16.33;;;;;;;11.97;100.00;100928.06;1056676;28;20857;-83
2022/06/08 00:39:11;;;;;;;16.88;15.23;;;;;;;12.12;100.00;100934.88;1053758;28;20301;-82
2022/06/08 00:39:43;;;;;;;20.52;15.80;;;;;;;12.16;100.00;100928.88;1048422;28;20314;-82
2022/06/08 00:40:17;;;;;;;17.85;14.77;;;;;;;12.14;100.00;100928.28;1044410;28;20299;-82
2022/06/08 00:41:01;;;;;;;16.75;14.07;;;;;;;12.00;100.00;100935.63;1049682;28;20310;-83
2022/06/08 00:41:40;;;;;;;16.92;15.18;;;;;;;11.90;100.00;100929.19;1056328;27;20754;-82
2022/06/08 00:42:13;;;;;;;16.90;14.95;;;;;;;11.78;100.00;100926.44;1057696;27;20304;-82
2022/06/08 00:42:45;;;;;;;17.85;15.00;;;;;;;11.80;100.00;100924.38;1052392;28;20294;-82
2022/06/08 00:43:17;;;;;;;17.17;15.48;;;;;;;11.76;100.00;100923.13;1044046;28;20306;-82
2022/06/08 00:43:49;;;;;;;17.70;15.23;;;;;;;11.91;100.00;100926.28;1048352;28;20303;-83
2022/06/08 00:44:25;;;;;;;17.58;14.82;;;;;;;11.97;100.00;100922.72;1046592;28;20338;-82
2022/06/08 00:45:18;;;;;;;16.17;14.55;;;;;;;12.03;100.00;100919.16;1051500;28;20656;-83
2022/06/08 00:45:49;;;;;;;17.05;14.93;;;;;;;12.10;100.00;100923.63;1048097;28;20311;-83
2022/06/08 00:46:21;;;;;;;19.20;15.25;;;;;;;12.06;100.00;100926.75;1050416;28;20377;-82
2022/06/08 00:46:53;;;;;;;19.60;17.63;;;;;;;12.20;100.00;100926.56;1051472;28;20857;-82
2022/06/08 00:47:31;;;;;;;16.77;15.18;;;;;;;12.18;100.00;100920.63;1049249;28;20295;-83
2022/06/08 00:48:05;;;;;;;20.95;15.18;;;;;;;12.15;100.00;100918.41;1053470;28;20298;-83
2022/06/08 00:48:48;;;;;;;16.05;14.43;;;;;;;11.93;100.00;100921.53;1052595;28;20664;-82
2022/06/08 00:49:31;;;;;;;17.55;15.27;;;;;;;12.03;100.00;100921.81;1049658;28;20302;-83
2022/06/08 00:50:16;;;;;;;15.38;13.85;;;;;;;12.10;100.00;100919.09;1053300;28;20302;-82
2022/06/08 00:50:51;;;;;;;20.52;14.95;;;;;;;12.07;100.00;100920.34;1050128;28;20301;-82
2022/06/08 00:51:23;;;;;;;16.83;15.02;;;;;;;11.99;100.00;100923.31;1048307;28;20305;-83
2022/06/08 00:51:55;;;;;;;15.65;13.85;;;;;;;12.01;100.00;100915.88;1047977;28;20298;-82
2022/06/08 00:52:28;;;;;;;18.33;15.32;;;;;;;12.08;100.00;100926.50;1050644;28;20302;-83
2022/06/08 00:53:00;;;;;;;17.02;15.25;;;;;;;12.02;100.00;100917.50;1055060;28;20762;-82
2022/06/08 00:53:36;;;;;;;21.65;16.77;;;;;;;11.91;100.00;100918.28;1049757;28;20305;-83
2022/06/08 00:54:11;;;;;;;19.27;16.23;;;;;;;11.66;100.00;100922.84;1049217;28;20306;-82
2022/06/08 00:54:47;;;;;;;18.90;15.18;;;;;;;11.69;100.00;100914.38;1051358;28;20739;-82
2022/06/08 00:55:22;;;;;;;20.48;15.82;;;;;;;11.69;100.00;100914.38;1052441;28;20679;-82
2022/06/08 00:55:55;;;;;;;16.98;15.05;;;;;;;11.80;100.00;100912.88;1048008;28;20822;-82
2022/06/08 00:56:30;;;;;;;17.38;15.77;;;;;;;11.81;100.00;100919.84;1044078;28;20306;-82
2022/06/08 00:57:08;;;;;;;15.75;14.23;;;;;;;11.85;100.00;100916.50;1050039;28;20295;-82
2022/06/08 00:58:00;;;;;;;18.17;16.27;;;;;;;11.84;100.00;100917.53;1054850;28;20355;-82
2022/06/08 00:58:33;;;;;;;16.98;15.45;;;;;;;11.69;100.00;100917.88;1056926;28;20296;-80
2022/06/08 00:59:08;;;;;;;15.55;13.95;;;;;;;11.56;100.00;100911.84;1057032;27;20297;-82
2022/06/08 00:59:43;;;;;;;18.08;16.02;;;;;;;11.56;100.00;100907.34;1054954;28;20282;-82
2022/06/08 01:00:19;;;;;;;19.58;16.17;;;;;;;11.55;100.00;100910.22;1051891;28;20297;-82
2022/06/08 01:00:51;;;;;;;16.50;14.88;;;;;;;11.64;100.00;100911.56;1050555;28;20294;-82
2022/06/08 01:01:25;;;;;;;15.93;14.45;;;;;;;11.62;100.00;100906.44;1054437;28;20305;-82
2022/06/08 01:01:57;;;;;;;16.05;14.63;;;;;;;11.51;100.00;100914.38;1047771;28;20313;-82
2022/06/08 01:02:32;;;;;;;18.35;15.20;;;;;;;11.49;100.00;100911.91;1042607;28;20315;-82
2022/06/08 01:03:08;;;;;;;20.15;15.52;;;;;;;11.38;100.00;100915.31;1048682;28;20780;-80
2022/06/08 01:03:47;;;;;;;16.15;14.55;;;;;;;11.34;100.00;100909.59;1045964;28;20318;-82
2022/06/08 01:04:20;;;;;;;16.95;15.20;;;;;;;11.41;100.00;100917.53;1044007;28;20319;-82
2022/06/08 01:05:34;;;;;;;15.10;13.63;;;;;;;11.34;100.00;100901.59;1048316;28;20338;-82
2022/06/08 01:06:18;;;;;;;16.52;13.38;;;;;;;11.49;100.00;100905.75;1052225;28;20294;-83
2022/06/08 01:06:55;;;;;;;18.58;13.82;;;;;;;11.48;100.00;100910.28;1050748;28;20293;-83
2022/06/08 01:07:28;;;;;;;18.42;14.65;;;;;;;11.43;100.00;100908.28;1048363;28;20696;-82
2022/06/08 01:08:23;;;;;;;16.05;14.48;;;;;;;11.59;100.00;100906.09;1043338;28;20295;-82
2022/06/08 01:08:56;;;;;;;17.95;12.55;;;;;;;11.51;100.00;100909.03;1043614;28;20300;-82
2022/06/08 01:09:36;;;;;;;14.38;12.98;;;;;;;11.45;100.00;100908.06;1045069;28;20299;-82
2022/06/08 01:10:20;;;;;;;17.15;13.85;;;;;;;11.45;100.00;100906.19;1047281;28;20876;-82
2022/06/08 01:10:57;;;;;;;14.48;12.50;;;;;;;11.48;100.00;100904.13;1048307;28;20301;-82
2022/06/08 01:11:29;;;;;;;20.42;13.98;;;;;;;11.60;100.00;100907.72;1052250;28;20842;-82
2022/06/08 01:12:04;;;;;;;19.65;13.77;;;;;;;11.59;100.00;100900.75;1054595;28;20301;-82
2022/06/08 01:12:39;;;;;;;16.45;14.27;;;;;;;11.34;100.00;100901.59;1049609;28;20310;-82
2022/06/08 01:13:13;;;;;;;17.27;12.45;;;;;;;11.48;100.00;100902.28;1047932;28;20789;-82
2022/06/08 01:13:45;;;;;;;14.40;12.82;;;;;;;11.45;100.00;100900.88;1050345;28;20315;-82
2022/06/08 01:14:20;;;;;;;14.70;13.30;;;;;;;11.50;100.00;100902.03;1054196;28;20396;-82
2022/06/08 01:14:53;;;;;;;14.73;13.25;;;;;;;11.57;100.00;100900.16;1051707;28;20302;-82
2022/06/08 01:15:27;;;;;;;20.52;13.93;;;;;;;11.57;100.00;100905.50;1047831;28;20310;-82
2022/06/08 01:16:06;;;;;;;16.13;13.40;;;;;;;11.28;100.00;100905.16;1052411;28;20302;-82
2022/06/08 01:16:40;;;;;;;19.77;13.45;;;;;;;11.37;100.00;100897.69;1052175;28;20787;-82
2022/06/08 01:17:15;;;;;;;13.93;12.52;;;;;;;11.37;100.00;100906.50;1052329;28;20348;-82
2022/06/08 01:17:47;;;;;;;14.98;12.98;;;;;;;11.41;100.00;100902.34;1048259;28;20294;-82
2022/06/08 01:18:20;;;;;;;14.20;12.80;;;;;;;11.32;100.00;100901.00;1046410;28;20307;-82
2022/06/08 01:18:52;;;;;;;14.05;11.80;;;;;;;11.25;100.00;100904.78;1044402;28;20717;-82
2022/06/08 01:19:28;;;;;;;17.08;14.15;;;;;;;11.03;100.00;100896.34;1050419;28;20299;-82
2022/06/08 01:20:00;;;;;;;15.20;13.70;;;;;;;10.98;100.00;100906.84;1049244;28;20309;-82
2022/06/08 01:20:44;;;;;;;14.50;13.13;;;;;;;10.99;100.00;100889.81;1050601;28;20831;-82
2022/06/08 01:21:20;;;;;;;16.73;13.63;;;;;;;10.92;100.00;100899.69;1048250;28;20299;-82
2022/06/08 01:22:00;;;;;;;15.38;13.77;;;;;;;10.82;100.00;100895.66;1048133;28;20047;-82
2022/06/08 01:22:43;;;;;;;13.52;12.23;;;;;;;10.91;100.00;100892.72;1047522;28;20381;-82
2022/06/08 01:23:15;;;;;;;14.43;12.63;;;;;;;11.01;100.00;100893.09;1051850;28;20306;-82
2022/06/08 01:23:50;;;;;;;16.75;12.95;;;;;;;11.01;100.00;100893.09;1045880;28;20356;-82
2022/06/08 01:24:23;;;;;;;15.75;13.75;;;;;;;11.04;100.00;100887.31;1048801;28;20309;-82
2022/06/08 01:24:56;;;;;;;14.90;12.75;;;;;;;11.01;100.00;100887.75;1048562;28;20314;-82
2022/06/08 01:25:46;;;;;;;14.32;12.18;;;;;;;10.94;100.00;100877.13;1049054;28;20302;-82
2022/06/08 01:26:53;;;;;;;17.08;12.77;;;;;;;11.11;100.00;100882.72;1049827;28;20811;-82
2022/06/08 01:27:30;;;;;;;15.25;11.88;;;;;;;11.12;100.00;100884.38;1047510;28;20302;-82
2022/06/08 01:28:02;;;;;;;16.42;12.73;;;;;;;11.15;100.00;100889.25;1047467;28;20406;-82
2022/06/08 01:28:50;;;;;;;14.45;13.05;;;;;;;11.05;100.00;100887.09;1048199;28;20310;-82
2022/06/08 01:29:58;;;;;;;16.52;13.30;;;;;;;10.69;100.00;100882.47;1054828;28;20363;-82
2022/06/08 01:30:51;;;;;;;13.55;12.15;;;;;;;10.59;100.00;100878.63;1053417;28;20718;-82
2022/06/08 01:31:44;;;;;;;18.95;12.77;;;;;;;10.49;100.00;100884.44;1050277;28;20307;-81
2022/06/08 01:32:39;;;;;;;13.15;11.95;;;;;;;10.64;100.00;100876.13;1037876;28;20312;-82
2022/06/08 01:33:30;;;;;;;13.77;12.27;;;;;;;10.84;100.00;100877.63;1043988;28;20657;-82
2022/06/08 01:34:08;;;;;;;18.55;13.13;;;;;;;10.95;100.00;100877.94;1048588;28;20302;-82
2022/06/08 01:35:04;;;;;;;14.80;12.60;;;;;;;10.99;100.00;100879.16;1042929;28;20041;-82
2022/06/08 01:36:17;;;;;;;16.90;12.95;;;;;;;10.84;100.00;100879.47;1040825;28;20304;-82
2022/06/08 01:37:15;;;;;;;14.63;13.23;;;;;;;10.59;100.00;100874.09;1044034;28;20280;-81
2022/06/08 01:38:00;;;;;;;16.02;12.35;;;;;;;10.55;100.00;100872.91;1041256;28;20049;-81
2022/06/08 01:38:41;;;;;;;15.48;13.52;;;;;;;10.49;100.00;100876.44;1046339;28;20677;-82
2022/06/08 01:39:32;;;;;;;15.73;13.07;;;;;;;10.44;100.00;100870.94;1043832;28;20797;-82
2022/06/08 01:40:27;;;;;;;13.02;11.70;;;;;;;10.52;100.00;100868.03;1044193;28;20299;-82
2022/06/08 01:41:34;;;;;;;15.15;12.82;;;;;;;10.64;100.00;100866.28;1048813;28;20295;-82
2022/06/08 01:42:33;;;;;;;14.25;12.75;;;;;;;10.57;100.00;100868.19;1050119;28;20290;-82
2022/06/08 01:43:16;;;;;;;15.40;12.07;;;;;;;10.80;100.00;100867.63;1055162;28;20414;-82
2022/06/08 01:44:12;;;;;;;14.52;12.45;;;;;;;10.80;100.00;100864.94;1046003;28;20306;-82
2022/06/08 01:45:48;;;;;;;17.63;13.77;;;;;;;10.64;100.00;100866.28;1043743;28;20298;-79
2022/06/08 01:46:24;;;;;;;15.05;13.43;;;;;;;10.66;100.00;100858.06;1040306;28;20311;-79
2022/06/08 01:47:10;;;;;;;16.83;14.25;;;;;;;10.79;100.00;100864.13;1043774;28;20342;-79
2022/06/08 01:48:07;;;;;;;15.05;13.55;;;;;;;10.74;100.00;100860.50;1043732;28;20330;-78
2022/06/08 01:48:49;;;;;;;13.60;12.30;;;;;;;10.64;100.00;100863.63;1043878;28;20314;-79
2022/06/08 01:49:25;;;;;;;14.52;12.20;;;;;;;10.54;100.00;100860.63;1042937;28;20304;-79
2022/06/08 01:50:18;;;;;;;13.25;11.63;;;;;;;10.55;100.00;100859.59;1041832;28;20345;-79
2022/06/08 01:51:05;;;;;;;18.63;12.13;;;;;;;10.58;100.00;100867.16;1051941;28;20297;-79
2022/06/08 01:52:06;;;;;;;12.85;11.07;;;;;;;10.61;100.00;100857.91;1050861;28;20688;-79
2022/06/08 01:52:45;;;;;;;13.95;12.43;;;;;;;10.67;100.00;100860.53;1045449;28;20390;-78
2022/06/08 01:53:44;;;;;;;15.13;12.45;;;;;;;10.59;100.00;100858.13;1037667;28;20045;-79
2022/06/08 01:54:28;;;;;;;14.63;12.38;;;;;;;10.42;100.00;100857.03;1040750;28;20650;-79
2022/06/08 01:55:10;;;;;;;14.95;12.50;;;;;;;10.42;100.00;100857.03;1043496;28;20326;-79
2022/06/08 01:55:53;;;;;;;13.10;11.77;;;;;;;10.50;100.00;100860.25;1048286;28;20314;-79
2022/06/08 01:56:53;;;;;;;14.18;12.52;;;;;;;10.46;100.00;100855.56;1038244;28;20347;-79
2022/06/08 01:57:40;;;;;;;14.77;13.10;;;;;;;10.53;100.00;100859.81;1047549;28;20310;-79
2022/06/08 01:58:51;;;;;;;12.40;11.15;;;;;;;10.63;100.00;100854.00;1046244;28;20393;-79
2022/06/08 01:59:23;;;;;;;16.92;13.50;;;;;;;10.54;100.00;100852.63;1041247;28;20308;-79
2022/06/08 02:00:23;;;;;;;14.13;12.75;;;;;;;10.60;100.00;100849.09;1040767;28;20050;-79
2022/06/08 02:01:14;;;;;;;16.10;14.05;;;;;;;10.61;100.00;100850.72;1038817;28;20304;-79
2022/06/08 02:01:54;;;;;;;15.40;13.80;;;;;;;10.60;100.00;100850.94;1040593;28;20319;-78
2022/06/08 02:02:32;;;;;;;17.35;13.60;;;;;;;10.85;100.00;100851.78;1040596;28;20308;-78
2022/06/08 02:03:19;;;;;;;14.90;13.35;;;;;;;10.90;100.00;100845.78;1045621;28;20295;-78
2022/06/08 02:04:14;;;;;;;15.93;14.23;;;;;;;11.09;100.00;100845.63;1042104;28;20308;-79
2022/06/08 02:04:55;;;;;;;22.83;14.73;;;;;;;11.16;100.00;100853.56;1047793;28;20294;-78
2022/06/08 02:05:57;;;;;;;18.92;13.90;;;;;;;11.23;100.00;100851.66;1037172;28;20305;-79
2022/06/08 02:06:49;;;;;;;18.70;14.65;;;;;;;11.34;100.00;100847.44;1037303;28;20034;-79
2022/06/08 02:07:49;;;;;;;15.55;13.98;;;;;;;11.37;100.00;100850.47;1042962;28;20307;-78
2022/06/08 02:08:34;;;;;;;18.60;15.23;;;;;;;11.24;100.00;100850.63;1044906;28;20394;-79
2022/06/08 02:09:18;;;;;;;17.02;14.68;;;;;;;11.44;100.00;100848.56;1047865;28;20846;-79
2022/06/08 02:10:31;;;;;;;17.58;14.90;;;;;;;11.26;100.00;100845.91;1047960;28;20306;-78
2022/06/08 02:11:25;;;;;;;17.77;15.65;;;;;;;11.22;100.00;100842.00;1039090;28;20300;-79
2022/06/08 02:12:06;;;;;;;17.42;15.60;;;;;;;11.32;100.00;100842.34;1041337;28;20292;-79
2022/06/08 02:12:53;;;;;;;18.35;15.90;;;;;;;11.33;100.00;100837.81;1040246;28;20836;-79
2022/06/08 02:13:28;;;;;;;17.52;15.57;;;;;;;11.29;100.00;100832.13;1036587;28;20880;-79
2022/06/08 02:14:07;;;;;;;18.27;15.85;;;;;;;11.39;100.00;100837.75;1038768;28;20109;-79
2022/06/08 02:14:49;;;;;;;18.10;14.57;;;;;;;11.46;100.00;100841.16;1039558;28;20693;-79
2022/06/08 02:15:29;;;;;;;19.45;17.38;;;;;;;11.52;100.00;100836.81;1033114;28;20656;-79
2022/06/08 02:16:16;;;;;;;22.20;19.02;;;;;;;11.66;100.00;100837.44;1037646;28;20343;-79
2022/06/08 02:17:03;;;;;;;21.27;18.05;;;;;;;11.63;100.00;100837.91;1039323;28;20300;-79
2022/06/08 02:17:45;;;;;;;20.10;17.23;;;;;;;11.70;100.00;100838.63;1040087;28;20383;-79
2022/06/08 02:18:28;;;;;;;21.20;18.67;;;;;;;11.69;100.00;100842.34;1043870;28;20310;-79
2022/06/08 02:19:09;;;;;;;23.08;18.38;;;;;;;11.71;100.00;100840.25;1046917;28;20703;-79
2022/06/08 02:19:46;;;;;;;23.80;19.20;;;;;;;11.75;100.00;100836.91;1044302;28;20300;-79
2022/06/08 02:20:28;;;;;;;29.52;18.85;;;;;;;11.85;100.00;100835.63;1038308;28;20037;-79
2022/06/08 02:21:07;;;;;;;21.45;17.52;;;;;;;11.90;100.00;100839.25;1039932;28;20690;-79
2022/06/08 02:21:44;;;;;;;24.90;18.88;;;;;;;11.94;100.00;100832.41;1039721;28;20068;-79
2022/06/08 02:22:24;;;;;;;26.13;20.67;;;;;;;11.88;100.00;100835.16;1043721;28;20335;-79
2022/06/08 02:23:07;;;;;;;19.23;17.33;;;;;;;11.94;100.00;100829.75;1037246;28;20423;-78
2022/06/08 02:24:19;;;;;;;29.05;18.10;;;;;;;11.95;100.00;100842.03;1039885;28;20308;-79
2022/06/08 02:24:58;;;;;;;22.30;18.00;;;;;;;11.95;100.00;100828.69;1050443;28;20298;-79
2022/06/08 02:25:34;;;;;;;19.92;17.85;;;;;;;11.99;100.00;100831.72;1042262;28;20466;-79
2022/06/08 02:26:13;;;;;;;19.17;17.08;;;;;;;12.06;100.00;100833.28;1041818;28;20330;-79
2022/06/08 02:26:56;;;;;;;21.65;18.05;;;;;;;12.06;100.00;100822.59;1041714;28;20334;-79
2022/06/08 02:27:36;;;;;;;22.08;19.75;;;;;;;12.06;100.00;100835.16;1046561;28;20483;-79
2022/06/08 02:28:19;;;;;;;22.63;17.10;;;;;;;12.10;100.00;100839.00;1043393;28;20341;-79
2022/06/08 02:29:04;;;;;;;20.15;18.00;;;;;;;12.12;100.00;100841.44;1044233;28;20326;-79
2022/06/08 02:29:40;;;;;;;19.98;17.98;;;;;;;12.00;100.00;100831.50;1045773;28;20680;-79
2022/06/08 02:30:17;;;;;;;21.88;17.52;;;;;;;12.00;100.00;100828.81;1043873;28;20392;-79
2022/06/08 02:30:55;;;;;;;19.75;17.75;;;;;;;12.07;100.00;100834.91;1041743;28;20351;-79
2022/06/08 02:31:52;;;;;;;20.42;18.33;;;;;;;11.85;100.00;100833.75;1038424;28;20395;-79
2022/06/08 02:34:31;;;;;;;19.92;16.98;;;;;;;11.96;100.00;100827.66;1051478;28;20109;-79
2022/06/08 02:35:17;;;;;;;21.48;18.38;;;;;;;11.84;100.00;100829.47;1045471;28;20815;-79
2022/06/08 02:35:51;;;;;;;23.88;20.10;;;;;;;11.82;100.00;100823.53;1041160;28;20296;-79
2022/06/08 02:36:32;;;;;;;21.92;18.85;;;;;;;11.75;100.00;100830.75;1035424;28;20679;-79
2022/06/08 02:37:11;;;;;;;25.52;20.05;;;;;;;11.81;100.00;100824.59;1035612;28;20309;-79
2022/06/08 02:37:45;;;;;;;24.27;20.38;;;;;;;11.86;100.00;100827.38;1038702;28;20332;-79
2022/06/08 02:38:25;;;;;;;21.58;18.10;;;;;;;11.84;100.00;100824.13;1033028;28;20815;-79
2022/06/08 02:39:08;;;;;;;22.52;18.70;;;;;;;11.93;100.00;100828.09;1043728;28;20386;-79
2022/06/08 02:39:45;;;;;;;23.58;19.13;;;;;;;11.93;100.00;100827.28;1042066;28;20835;-79
2022/06/08 02:40:21;;;;;;;28.67;19.73;;;;;;;11.93;100.00;100825.44;1043844;28;20672;-79
2022/06/08 02:40:57;;;;;;;20.75;18.45;;;;;;;12.02;100.00;100826.75;1043819;28;20318;-79
2022/06/08 02:41:30;;;;;;;24.45;20.40;;;;;;;11.90;100.00;100823.22;1041409;28;20307;-79
2022/06/08 02:42:07;;;;;;;20.42;18.38;;;;;;;11.82;100.00;100820.88;1043654;28;20318;-79
2022/06/08 02:42:44;;;;;;;24.00;19.48;;;;;;;11.80;100.00;100811.47;1043045;28;20381;-79
2022/06/08 02:43:22;;;;;;;23.13;19.13;;;;;;;11.84;100.00;100818.78;1043660;28;20954;-79
2022/06/08 02:44:01;;;;;;;23.38;19.08;;;;;;;11.92;100.00;100815.81;1047553;28;20305;-79
2022/06/08 02:44:36;;;;;;;23.08;18.90;;;;;;;12.02;100.00;100809.91;1045027;28;20306;-79
2022/06/08 02:45:14;;;;;;;21.27;19.00;;;;;;;12.20;100.00;100809.06;1039285;28;20038;-78
2022/06/08 02:45:54;;;;;;;22.73;19.73;;;;;;;12.15;100.00;100808.94;1035337;28;20308;-79
2022/06/08 02:46:49;;;;;;;24.02;17.42;;;;;;;12.08;100.00;100811.69;1034915;28;20332;-79
2022/06/08 02:47:30;;;;;;;20.95;17.45;;;;;;;12.12;100.00;100814.72;1043693;28;20727;-79
2022/06/08 02:48:09;;;;;;;25.45;17.70;;;;;;;12.06;100.00;100809.25;1044629;28;20311;-79
2022/06/08 02:48:42;;;;;;;18.25;16.27;;;;;;;12.04;100.00;100808.66;1047935;28;20345;-79
2022/06/08 02:49:14;;;;;;;18.80;16.00;;;;;;;12.05;100.00;100810.31;1047689;28;20846;-79
2022/06/08 02:49:46;;;;;;;19.83;17.70;;;;;;;12.06;100.00;100809.25;1036978;28;21128;-79
2022/06/08 02:50:24;;;;;;;18.63;15.80;;;;;;;12.02;100.00;100805.38;1035588;28;20304;-79
2022/06/08 02:50:58;;;;;;;19.67;17.67;;;;;;;12.18;100.00;100809.28;1039835;28;20299;-79
2022/06/08 02:51:36;;;;;;;21.38;17.15;;;;;;;12.15;100.00;100811.59;1035592;28;20821;-79
2022/06/08 02:52:20;;;;;;;19.17;17.08;;;;;;;12.13;100.00;100801.16;1036757;28;20391;-79
2022/06/08 02:53:25;;;;;;;19.17;17.33;;;;;;;12.18;100.00;100806.63;1035541;28;20375;-79
2022/06/08 02:54:03;;;;;;;23.38;17.90;;;;;;;12.09;100.00;100799.97;1044497;28;20304;-79
2022/06/08 02:54:36;;;;;;;18.92;16.92;;;;;;;12.15;100.00;100800.91;1042521;28;20307;-79
2022/06/08 02:55:19;;;;;;;20.08;16.33;;;;;;;12.07;100.00;100802.88;1040295;28;20304;-79
2022/06/08 02:56:14;;;;;;;19.25;17.17;;;;;;;12.07;100.00;100802.88;1051770;28;20325;-79
2022/06/08 02:56:55;;;;;;;22.05;15.20;;;;;;;12.04;100.00;100797.97;1047732;28;20294;-79
2022/06/08 02:57:43;;;;;;;20.27;17.75;;;;;;;12.17;100.00;100796.16;1044207;28;20302;-79
2022/06/08 02:58:23;;;;;;;19.55;15.98;;;;;;;12.15;100.00;100799.06;1047962;28;20147;-79
2022/06/08 02:59:00;;;;;;;17.08;15.32;;;;;;;12.12;100.00;100794.19;1047764;28;20056;-79
2022/06/08 02:59:49;;;;;;;18.60;16.60;;;;;;;11.98;100.00;100793.53;1051443;28;20301;-79